Observations for Trim Market St
| Time | AQI | Temp °C | Hum % | Pres Pa | CO μg/m³ | H₂S μg/m³ | NO μg/m³ | NO₂ μg/m³ | O₃ μg/m³ | SO₂ μg/m³ | PM1 μg/m³ | PM2.5 μg/m³ | PM10 μg/m³ |
|---|---|---|---|---|---|---|---|---|---|---|---|---|---|
| Thursday 16 July 2026 | |||||||||||||
| 19:17 | 2 | 28.9 | 39 | 65,493 | 0 | 1.26 | 0 | 9.6 | 31.18 | 0 | 9.98 | 14.57 | 19.66 |
| 19:16 | 2 | 28.9 | 39 | 65,491 | 0 | 0.89 | 0 | 8.7 | 31.3 | 0 | 9.98 | 16.68 | 24.52 |
| 19:15 | 2 | 28.9 | 39 | 65,517 | 0 | 1.34 | 0 | 8.5 | 29.22 | 0 | 7.84 | 12.45 | 16.43 |
| 19:14 | 2 | 28.9 | 39 | 65,521 | 0 | 4.39 | 0 | 10.5 | 32.55 | 0 | 7.84 | 11.92 | 17.24 |
| 19:13 | 2 | 28.9 | 39 | 65,529 | 0 | 5.49 | 0 | 11.31 | 33.53 | 0 | 7.13 | 13.51 | 19.67 |
| 19:12 | 2 | 28.9 | 39 | 65,538 | 0 | 4.87 | 0 | 12.42 | 31.22 | 0 | 9.26 | 15.11 | 20.49 |
| 19:11 | 2 | 29 | 39 | 65,550 | 0 | 3.5 | 0 | 11.82 | 32.93 | 0 | 4.28 | 11.41 | 14.83 |
| 19:08 | 2 | 29 | 39 | 65,590 | 0 | 4.12 | 0 | 11.54 | 33.25 | 0 | 7.13 | 12.49 | 17.28 |
| 19:05 | 2 | 29.1 | 38 | 65,602 | 0 | 3.18 | 0 | 9.94 | 32.22 | 0 | 9.98 | 15.69 | 22.18 |
| 18:58 | 2 | 29.2 | 38 | 65,690 | 0 | 2.21 | 0 | 9.45 | 29.85 | 0 | 7.13 | 15.71 | 21.39 |
| 18:57 | 2 | 29.2 | 38 | 65,684 | 0 | 2.1 | 0 | 8.55 | 25.91 | 0 | 9.26 | 16.24 | 23.02 |
| 18:53 | 2 | 29.3 | 38 | 65,686 | 0 | 5.38 | 0 | 10.23 | 31.19 | 0 | 9.98 | 16.25 | 22.22 |
| 18:52 | 2 | 29.3 | 38 | 65,678 | 0 | 7.45 | 0 | 11.33 | 32.4 | 0 | 8.55 | 13.59 | 18.95 |
| 18:50 | 2 | 29.3 | 38 | 65,682 | 0 | 3.43 | 0 | 8.23 | 27.96 | 0 | 8.55 | 13.59 | 18.95 |
| 18:48 | 2 | 29.4 | 38 | 65,653 | 0 | 11.83 | 0 | 12.7 | 34.95 | 0 | 9.98 | 15.19 | 22.22 |
| 18:47 | 2 | 29.4 | 38 | 65,666 | 0 | 9.93 | 0 | 12.61 | 36.17 | 0 | 7.84 | 13.07 | 18.15 |
| 18:46 | 2 | 29.4 | 38 | 65,684 | 0 | 8.97 | 0 | 11.73 | 30.74 | 0 | 9.98 | 15.73 | 21.42 |
| 18:45 | 2 | 29.4 | 38 | 65,698 | 0 | 11.3 | 0 | 14.13 | 31.18 | 0 | 10.69 | 16.26 | 23.88 |
| 18:44 | 2 | 29.4 | 38 | 65,696 | 0 | 11.27 | 0 | 13.13 | 31.87 | 0 | 7.84 | 17.33 | 24.69 |
| 18:43 | 2 | 29.4 | 38 | 65,724 | 0 | 10.55 | 0 | 12.84 | 32.93 | 0 | 6.41 | 12.55 | 18.16 |